Time;durP1;ratioP1;P1;durP2;ratioP2;P2;SDS_P1;SDS_P2;PMS_P1;PMS_P2;Temp;Humidity;BMP_temperature;BMP_pressure;BME280_temperature;BME280_humidity;BME280_pressure;Samples;Min_cycle;Max_cycle;Signal;HPM_P1;HPM_P2
2022/07/11 00:02:13;;;;;;;6.60;4.00;;;18.90;49.00;;;;;;5051521;28;20396;-74
2022/07/11 00:04:40;;;;;;;7.75;3.72;;;18.80;48.80;;;;;;5051535;28;20870;-74
2022/07/11 00:07:06;;;;;;;8.90;4.67;;;18.80;49.20;;;;;;5050168;28;20761;-74
2022/07/11 00:09:32;;;;;;;8.23;4.20;;;18.80;49.80;;;;;;5052431;28;20401;-74
2022/07/11 00:12:00;;;;;;;8.50;4.20;;;18.70;50.10;;;;;;5055227;28;20423;-74
2022/07/11 00:14:25;;;;;;;6.63;4.78;;;18.70;50.70;;;;;;5054443;28;20389;-75
2022/07/11 00:16:52;;;;;;;12.40;4.67;;;18.70;50.80;;;;;;5055106;28;20400;-74
2022/07/11 00:19:18;;;;;;;7.93;4.63;;;18.70;51.40;;;;;;5054463;28;20754;-74
2022/07/11 00:21:44;;;;;;;11.10;4.28;;;18.60;51.80;;;;;;5053991;28;20385;-74
2022/07/11 00:24:09;;;;;;;8.50;4.33;;;18.60;52.10;;;;;;5051617;28;20396;-74
2022/07/11 00:26:35;;;;;;;9.57;4.47;;;18.60;52.80;;;;;;5050930;28;20480;-74
2022/07/11 00:29:01;;;;;;;9.98;4.60;;;18.50;53.30;;;;;;5050956;28;20381;-74
2022/07/11 00:31:27;;;;;;;7.78;4.40;;;18.50;54.00;;;;;;5050768;28;20381;-75
2022/07/11 00:33:53;;;;;;;9.10;4.95;;;18.40;54.50;;;;;;5050969;28;20389;-75
2022/07/11 00:36:19;;;;;;;7.05;4.50;;;18.40;55.10;;;;;;5051020;28;20770;-75
2022/07/11 00:38:45;;;;;;;11.07;5.30;;;18.30;55.50;;;;;;5049693;28;20475;-75
2022/07/11 00:41:11;;;;;;;11.65;4.90;;;18.30;56.40;;;;;;5050805;28;20385;-74
2022/07/11 00:43:38;;;;;;;9.27;5.05;;;18.20;58.10;;;;;;5050958;28;20480;-74
2022/07/11 00:46:08;;;;;;;7.60;4.40;;;18.10;58.50;;;;;;5050977;28;20421;-74
2022/07/11 00:48:38;;;;;;;8.77;4.80;;;18.00;59.60;;;;;;5051003;28;20456;-74
2022/07/11 00:51:04;;;;;;;9.55;4.65;;;18.00;60.70;;;;;;5051190;28;20413;-76
2022/07/11 00:53:31;;;;;;;10.60;4.90;;;17.90;61.50;;;;;;5051884;28;20464;-76
2022/07/11 00:55:58;;;;;;;12.73;5.70;;;17.90;62.60;;;;;;5057999;28;20413;-74
2022/07/11 00:58:24;;;;;;;7.32;5.10;;;17.80;63.60;;;;;;5058051;28;20383;-74
2022/07/11 01:00:50;;;;;;;9.38;4.75;;;17.70;64.80;;;;;;5060468;28;20420;-74
2022/07/11 01:03:16;;;;;;;7.45;4.60;;;17.70;65.50;;;;;;5059584;28;20538;-74
2022/07/11 01:05:41;;;;;;;11.85;4.90;;;17.60;66.70;;;;;;5058726;28;20381;-75
2022/07/11 01:08:07;;;;;;;9.10;5.00;;;17.60;67.70;;;;;;5060491;28;20417;-75
2022/07/11 01:10:34;;;;;;;11.88;4.75;;;17.50;68.60;;;;;;5047372;28;20403;-75
2022/07/11 01:12:59;;;;;;;9.15;5.47;;;17.40;69.50;;;;;;5047328;28;20517;-74
2022/07/11 01:15:25;;;;;;;11.43;5.37;;;17.40;70.50;;;;;;5040782;28;20486;-74
2022/07/11 01:17:53;;;;;;;11.43;5.53;;;17.30;71.30;;;;;;5038081;28;20408;-73
2022/07/11 01:20:20;;;;;;;11.40;5.70;;;17.40;71.80;;;;;;5055747;28;20474;-73
2022/07/11 01:22:52;;;;;;;11.35;5.15;;;17.30;72.80;;;;;;5063866;28;20394;-74
2022/07/11 01:25:30;;;;;;;13.23;6.10;;;17.30;73.80;;;;;;5049760;28;20403;-73
2022/07/11 01:28:06;;;;;;;10.18;5.43;;;17.20;74.70;;;;;;5048730;28;20475;-74
2022/07/11 01:30:32;;;;;;;9.15;5.63;;;17.20;75.60;;;;;;5045520;28;20725;-75
2022/07/11 01:32:59;;;;;;;9.67;5.90;;;17.10;76.60;;;;;;5039803;28;20407;-74
2022/07/11 01:35:26;;;;;;;11.07;5.70;;;17.10;77.30;;;;;;5036733;28;20401;-73
2022/07/11 01:37:51;;;;;;;10.95;5.55;;;17.00;78.30;;;;;;5050596;28;20866;-75
2022/07/11 01:40:17;;;;;;;9.57;5.60;;;16.90;79.20;;;;;;5044394;28;20502;-76
2022/07/11 01:42:43;;;;;;;12.32;5.70;;;16.90;80.00;;;;;;5042357;28;20425;-75
2022/07/11 01:45:10;;;;;;;10.05;5.57;;;16.90;80.50;;;;;;5038760;28;20422;-75
2022/07/11 01:47:36;;;;;;;11.47;6.40;;;16.90;81.00;;;;;;5038074;28;20382;-75
2022/07/11 01:50:02;;;;;;;11.53;5.60;;;16.90;81.60;;;;;;5038643;28;20937;-76
2022/07/11 01:52:28;;;;;;;10.18;6.05;;;16.80;81.70;;;;;;5037947;28;20907;-76
2022/07/11 01:54:53;;;;;;;12.35;6.32;;;16.80;82.60;;;;;;5038139;28;20444;-75
2022/07/11 01:57:19;;;;;;;10.57;6.07;;;16.80;83.10;;;;;;5038205;28;20803;-76
2022/07/11 01:59:45;;;;;;;9.43;6.13;;;16.80;83.40;;;;;;5036882;28;20474;-76
2022/07/11 02:02:10;;;;;;;14.40;6.40;;;16.70;84.00;;;;;;5037307;28;20394;-76
2022/07/11 02:04:36;;;;;;;13.38;6.78;;;16.70;84.10;;;;;;5037050;28;20898;-76
2022/07/11 02:07:01;;;;;;;10.25;6.20;;;16.70;85.40;;;;;;5032446;28;20407;-76
2022/07/11 02:09:27;;;;;;;11.00;6.57;;;16.60;86.00;;;;;;5033669;28;20482;-76
2022/07/11 02:11:53;;;;;;;10.40;6.53;;;16.60;86.70;;;;;;5033353;28;20411;-77
2022/07/11 02:14:18;;;;;;;12.40;7.38;;;16.60;87.20;;;;;;5033805;28;20474;-76
2022/07/11 02:16:44;;;;;;;10.82;6.80;;;16.50;88.40;;;;;;5033358;28;20390;-76
2022/07/11 02:19:10;;;;;;;12.13;5.83;;;16.50;89.00;;;;;;5033517;28;20911;-76
2022/07/11 02:21:36;;;;;;;13.85;6.60;;;16.60;88.90;;;;;;5031836;28;20402;-77
2022/07/11 02:24:03;;;;;;;9.97;5.67;;;16.60;88.20;;;;;;5032302;28;20442;-77
2022/07/11 02:26:28;;;;;;;13.35;6.07;;;16.60;88.70;;;;;;5033370;28;20415;-77
2022/07/11 02:28:54;;;;;;;11.32;5.90;;;16.50;89.20;;;;;;5033369;28;20423;-77
2022/07/11 02:31:19;;;;;;;11.07;6.60;;;16.50;89.80;;;;;;5034659;28;20379;-77
2022/07/11 02:33:45;;;;;;;9.90;6.37;;;16.50;90.80;;;;;;5033994;28;20383;-76
2022/07/11 02:36:11;;;;;;;12.43;6.13;;;16.50;91.10;;;;;;5035841;28;20457;-76
2022/07/11 02:38:37;;;;;;;10.77;5.75;;;16.50;91.00;;;;;;5033819;28;20474;-76
2022/07/11 02:41:03;;;;;;;11.80;6.88;;;16.60;89.60;;;;;;5031986;28;20388;-76
2022/07/11 02:43:28;;;;;;;10.82;6.63;;;16.70;88.30;;;;;;5031811;28;20395;-77
2022/07/11 02:45:55;;;;;;;13.03;6.83;;;16.70;87.20;;;;;;5033865;28;20785;-76
2022/07/11 02:48:21;;;;;;;12.57;6.93;;;16.80;85.90;;;;;;5034463;28;20995;-75
2022/07/11 02:50:47;;;;;;;7.88;5.40;;;16.80;86.10;;;;;;5034309;28;20474;-76
2022/07/11 02:53:13;;;;;;;12.02;5.90;;;16.80;84.40;;;;;;5033686;28;20490;-77
2022/07/11 02:55:38;;;;;;;10.68;5.63;;;16.90;84.20;;;;;;5033276;28;20774;-77
2022/07/11 02:58:04;;;;;;;11.27;6.20;;;16.90;83.70;;;;;;5033133;28;20433;-77
2022/07/11 03:00:30;;;;;;;9.63;5.65;;;16.90;83.30;;;;;;5032896;28;20457;-77
2022/07/11 03:02:56;;;;;;;10.02;5.80;;;16.90;83.10;;;;;;5032519;28;20413;-77
2022/07/11 03:05:21;;;;;;;12.77;5.93;;;17.00;83.20;;;;;;5032609;28;20383;-77
2022/07/11 03:07:47;;;;;;;12.40;5.55;;;17.00;82.60;;;;;;5032784;28;20912;-76
2022/07/11 03:10:13;;;;;;;12.47;6.17;;;17.10;82.90;;;;;;5032925;28;20427;-76
2022/07/11 03:12:39;;;;;;;9.40;5.27;;;17.20;81.80;;;;;;5033637;28;20745;-76
2022/07/11 03:15:05;;;;;;;9.90;5.40;;;17.20;80.70;;;;;;5032976;28;20440;-77
2022/07/11 03:17:31;;;;;;;8.70;5.10;;;17.20;80.80;;;;;;5031408;28;20478;-77
2022/07/11 03:19:57;;;;;;;8.17;6.10;;;17.30;80.40;;;;;;5032240;28;20860;-76
2022/07/11 03:22:23;;;;;;;8.57;5.00;;;17.30;79.60;;;;;;5032176;28;20385;-78
2022/07/11 03:24:50;;;;;;;15.77;5.60;;;17.30;79.90;;;;;;5032482;28;20394;-78
2022/07/11 03:27:16;;;;;;;8.80;5.70;;;17.30;80.60;;;;;;5032573;28;20478;-77
2022/07/11 03:29:42;;;;;;;14.30;5.47;;;17.30;79.90;;;;;;5032791;28;20390;-77
2022/07/11 03:32:08;;;;;;;10.20;6.20;;;17.40;79.40;;;;;;5032461;28;20498;-77
2022/07/11 03:34:34;;;;;;;11.60;5.90;;;17.40;79.60;;;;;;5032450;28;20804;-77
2022/07/11 03:37:00;;;;;;;14.23;6.33;;;17.50;78.90;;;;;;5032468;28;20414;-77
2022/07/11 03:39:26;;;;;;;13.25;5.85;;;17.50;78.60;;;;;;5032166;28;20834;-77
2022/07/11 03:41:52;;;;;;;14.35;6.13;;;17.50;78.90;;;;;;5030802;28;20387;-77
2022/07/11 03:44:17;;;;;;;13.95;6.32;;;17.50;78.10;;;;;;5032076;28;20383;-78
2022/07/11 03:46:43;;;;;;;15.73;6.33;;;17.50;78.80;;;;;;5032016;28;20421;-77
2022/07/11 03:49:08;;;;;;;9.53;5.00;;;17.60;77.70;;;;;;5032127;28;20463;-77
2022/07/11 03:51:34;;;;;;;10.90;5.53;;;17.60;76.50;;;;;;5031847;28;20391;-78
2022/07/11 03:54:00;;;;;;;10.70;5.47;;;17.60;77.90;;;;;;5031650;28;20379;-78
2022/07/11 03:56:26;;;;;;;10.48;5.70;;;17.60;78.30;;;;;;5032334;28;20380;-77
2022/07/11 03:58:51;;;;;;;10.83;5.40;;;17.60;77.80;;;;;;5031796;28;20744;-77
2022/07/11 04:01:18;;;;;;;17.73;5.10;;;17.70;77.10;;;;;;5031451;28;20383;-77
2022/07/11 04:03:44;;;;;;;8.55;5.25;;;17.80;75.80;;;;;;5031579;28;20379;-78
2022/07/11 04:06:10;;;;;;;9.23;5.00;;;17.80;75.10;;;;;;5031068;28;20390;-77
2022/07/11 04:08:35;;;;;;;7.70;4.97;;;17.80;75.00;;;;;;5030022;28;20745;-78
2022/07/11 04:11:01;;;;;;;17.20;5.30;;;17.70;75.70;;;;;;5030998;28;20480;-77
2022/07/11 04:13:26;;;;;;;10.20;5.22;;;17.60;76.80;;;;;;5030067;28;20410;-77
2022/07/11 04:15:52;;;;;;;9.13;5.30;;;17.70;76.00;;;;;;5031522;28;20390;-77
2022/07/11 04:18:17;;;;;;;13.18;5.63;;;17.60;76.40;;;;;;5031796;28;20446;-78
2022/07/11 04:20:43;;;;;;;10.13;5.03;;;17.60;77.30;;;;;;5031678;28;20387;-78
2022/07/11 04:23:09;;;;;;;7.00;4.63;;;17.60;76.60;;;;;;5031654;28;20509;-77
2022/07/11 04:25:34;;;;;;;8.53;4.47;;;17.70;74.10;;;;;;5031210;28;20511;-77
2022/07/11 04:28:01;;;;;;;7.50;4.10;;;17.60;73.60;;;;;;5031273;28;20713;-77
2022/07/11 04:30:27;;;;;;;5.83;3.57;;;17.70;73.40;;;;;;5031190;28;20387;-77
2022/07/11 04:32:52;;;;;;;6.95;3.40;;;17.70;71.10;;;;;;5031950;28;20498;-76
2022/07/11 04:35:18;;;;;;;6.33;3.30;;;17.70;71.00;;;;;;5032365;28;20407;-76
2022/07/11 04:37:44;;;;;;;5.33;3.03;;;17.70;70.00;;;;;;5031113;28;20865;-76
2022/07/11 04:40:10;;;;;;;5.50;3.00;;;17.80;68.60;;;;;;5031011;28;20378;-76
2022/07/11 04:42:36;;;;;;;7.93;3.38;;;17.80;65.60;;;;;;5031097;28;20383;-77
2022/07/11 04:45:01;;;;;;;4.10;2.97;;;17.80;66.40;;;;;;5031184;28;20975;-76
2022/07/11 04:47:27;;;;;;;6.13;3.30;;;17.80;66.20;;;;;;5033143;28;20387;-77
2022/07/11 04:49:52;;;;;;;5.47;2.40;;;17.90;65.50;;;;;;5033070;28;20390;-76
2022/07/11 04:52:18;;;;;;;6.03;2.60;;;17.80;64.30;;;;;;5031193;28;20449;-77
2022/07/11 04:54:44;;;;;;;5.87;2.43;;;17.80;64.00;;;;;;5031135;28;20387;-78
2022/07/11 04:57:09;;;;;;;4.33;2.40;;;17.80;64.00;;;;;;5031721;28;20385;-76
2022/07/11 04:59:35;;;;;;;3.03;2.20;;;17.90;62.10;;;;;;5030696;28;20529;-76
2022/07/11 05:02:01;;;;;;;3.97;2.50;;;18.00;61.00;;;;;;5030655;28;20387;-76
2022/07/11 05:04:26;;;;;;;2.42;2.20;;;18.10;59.80;;;;;;5029687;28;20387;-76
2022/07/11 05:06:52;;;;;;;7.95;2.40;;;18.20;59.70;;;;;;5029895;28;20426;-78
2022/07/11 05:09:18;;;;;;;4.70;2.10;;;18.40;57.20;;;;;;5031099;28;20757;-77
2022/07/11 05:11:44;;;;;;;3.15;2.00;;;18.50;55.50;;;;;;5030939;28;20411;-78
2022/07/11 05:14:10;;;;;;;3.15;1.92;;;18.60;54.20;;;;;;5030821;28;20868;-77
2022/07/11 05:16:35;;;;;;;3.10;2.10;;;18.50;54.90;;;;;;5030609;28;20391;-77
2022/07/11 05:19:01;;;;;;;2.83;2.20;;;18.50;55.00;;;;;;5030836;28;20383;-77
2022/07/11 05:21:26;;;;;;;2.78;2.58;;;18.70;53.80;;;;;;5030455;28;20840;-77
2022/07/11 05:23:52;;;;;;;3.33;2.80;;;18.80;52.00;;;;;;5030757;28;20391;-77
2022/07/11 05:26:18;;;;;;;3.47;2.60;;;18.90;50.70;;;;;;5030959;28;20407;-77
2022/07/11 05:28:43;;;;;;;3.88;2.63;;;18.80;51.80;;;;;;5031084;28;20385;-77
2022/07/11 05:31:10;;;;;;;3.40;3.10;;;18.80;51.10;;;;;;5031004;28;20379;-78
2022/07/11 05:33:36;;;;;;;3.28;2.97;;;18.70;51.60;;;;;;5030720;28;20898;-76
2022/07/11 05:36:01;;;;;;;3.53;3.23;;;18.60;52.90;;;;;;5030516;28;20399;-76
2022/07/11 05:38:27;;;;;;;3.90;3.40;;;18.60;53.30;;;;;;5030837;28;20457;-77
2022/07/11 05:40:53;;;;;;;3.33;3.03;;;18.60;53.30;;;;;;5031283;28;20383;-77
2022/07/11 05:43:18;;;;;;;6.10;3.38;;;18.60;52.70;;;;;;5034397;28;20391;-76
2022/07/11 05:45:44;;;;;;;3.60;3.22;;;18.50;54.00;;;;;;5032687;28;20445;-77
2022/07/11 05:48:10;;;;;;;4.00;3.60;;;18.40;54.60;;;;;;5033122;28;20474;-76
2022/07/11 05:50:35;;;;;;;3.90;3.23;;;18.50;54.30;;;;;;5034309;28;20417;-76
2022/07/11 05:53:02;;;;;;;4.15;2.90;;;18.60;53.40;;;;;;5033854;28;20574;-76
2022/07/11 05:55:28;;;;;;;4.30;2.70;;;18.70;52.10;;;;;;5034233;28;20434;-76
2022/07/11 05:57:54;;;;;;;3.00;2.70;;;18.80;51.80;;;;;;5033809;28;20429;-76
2022/07/11 06:00:22;;;;;;;5.38;3.20;;;18.90;51.10;;;;;;5034257;28;20414;-75
2022/07/11 06:02:48;;;;;;;3.60;3.30;;;18.90;50.70;;;;;;5033296;28;20407;-77
2022/07/11 06:05:13;;;;;;;5.03;3.00;;;18.90;50.80;;;;;;5034698;28;20398;-76
2022/07/11 06:10:23;;;;;;;1.95;1.85;;;18.70;50.00;;;;;;5034474;28;20445;-76
2022/07/11 06:12:49;;;;;;;3.00;1.90;;;18.60;51.50;;;;;;5032705;28;20406;-76
2022/07/11 06:15:14;;;;;;;4.85;2.08;;;18.40;52.50;;;;;;5034756;28;20398;-76
2022/07/11 06:17:40;;;;;;;1.90;1.70;;;18.40;52.70;;;;;;5033572;28;20856;-75
2022/07/11 06:20:09;;;;;;;2.05;1.55;;;18.50;51.90;;;;;;5036159;28;20417;-77
2022/07/11 06:22:34;;;;;;;1.65;1.48;;;18.40;52.70;;;;;;5036740;28;20387;-75
2022/07/11 06:25:00;;;;;;;1.58;1.48;;;18.50;52.40;;;;;;5037886;28;20391;-77
2022/07/11 06:27:25;;;;;;;3.10;1.70;;;18.50;52.50;;;;;;5037385;28;20393;-76
2022/07/11 06:29:51;;;;;;;1.50;1.40;;;18.50;51.70;;;;;;5033106;28;20456;-76
2022/07/11 06:32:16;;;;;;;4.50;1.40;;;18.60;51.10;;;;;;5031835;28;20403;-76
2022/07/11 06:34:42;;;;;;;2.50;1.50;;;18.60;51.10;;;;;;5033196;28;20397;-75
2022/07/11 06:37:08;;;;;;;2.67;1.90;;;18.60;50.70;;;;;;5034079;28;20389;-76
2022/07/11 06:39:33;;;;;;;1.80;1.70;;;18.60;51.00;;;;;;5033390;28;20402;-77
2022/07/11 06:41:59;;;;;;;3.50;1.70;;;18.60;52.10;;;;;;5033883;28;20386;-77
2022/07/11 06:44:24;;;;;;;2.30;1.80;;;18.70;52.10;;;;;;5033569;28;20390;-77
2022/07/11 06:46:50;;;;;;;4.13;2.30;;;18.80;51.30;;;;;;5032787;28;20465;-76
2022/07/11 06:49:16;;;;;;;6.93;4.10;;;18.80;51.50;;;;;;5032786;28;20386;-78
2022/07/11 06:51:41;;;;;;;6.15;4.30;;;18.90;52.40;;;;;;5032610;28;20396;-77
2022/07/11 06:54:07;;;;;;;8.07;5.20;;;18.90;53.20;;;;;;5033097;28;20386;-77
2022/07/11 06:56:32;;;;;;;9.85;6.63;;;18.60;55.40;;;;;;5033030;28;20387;-78
2022/07/11 06:58:58;;;;;;;14.25;8.82;;;18.40;58.20;;;;;;5033603;28;20375;-77
2022/07/11 07:01:24;;;;;;;12.73;8.35;;;18.40;59.00;;;;;;5033384;28;20415;-77
2022/07/11 07:03:50;;;;;;;15.27;10.77;;;18.40;58.90;;;;;;5031628;28;20797;-77
2022/07/11 07:06:15;;;;;;;17.43;10.70;;;18.50;59.00;;;;;;5032665;28;20390;-76
2022/07/11 07:08:41;;;;;;;8.90;6.60;;;18.50;59.30;;;;;;5032789;28;20409;-77
2022/07/11 07:11:06;;;;;;;9.20;4.47;;;18.50;57.10;;;;;;5032488;28;20379;-76
2022/07/11 07:13:32;;;;;;;7.43;6.40;;;18.60;55.40;;;;;;5032364;28;20433;-76
2022/07/11 07:15:58;;;;;;;13.60;7.57;;;18.60;59.00;;;;;;5031314;28;20379;-77
2022/07/11 07:18:24;;;;;;;12.50;6.40;;;18.40;61.50;;;;;;5033299;28;20413;-77
2022/07/11 07:20:50;;;;;;;8.25;6.82;;;18.40;62.20;;;;;;5032432;28;20383;-77
2022/07/11 07:23:16;;;;;;;7.68;6.30;;;18.30;62.90;;;;;;5032378;28;20521;-77
2022/07/11 07:25:42;;;;;;;8.75;7.50;;;18.20;63.50;;;;;;5032483;28;20395;-76
2022/07/11 07:28:08;;;;;;;11.80;8.07;;;18.10;67.00;;;;;;5032621;28;20391;-77
2022/07/11 07:30:33;;;;;;;16.47;8.60;;;18.10;68.30;;;;;;5030600;28;20399;-76
2022/07/11 07:33:00;;;;;;;19.38;8.57;;;18.20;67.20;;;;;;5031837;28;20403;-77
2022/07/11 07:35:26;;;;;;;14.10;8.38;;;18.20;67.80;;;;;;5035255;28;20856;-78
2022/07/11 07:37:51;;;;;;;14.35;7.90;;;18.40;68.10;;;;;;5033185;28;20383;-77
2022/07/11 07:40:17;;;;;;;11.57;8.30;;;18.50;66.00;;;;;;5032630;28;20426;-77
2022/07/11 07:42:43;;;;;;;17.17;7.87;;;18.50;64.40;;;;;;5037834;28;20389;-78
2022/07/11 07:45:09;;;;;;;15.85;7.80;;;18.60;67.40;;;;;;5033013;28;20876;-76
2022/07/11 07:47:36;;;;;;;14.82;8.43;;;19.00;65.60;;;;;;5032226;28;20554;-77
2022/07/11 07:50:02;;;;;;;14.13;8.40;;;19.50;58.20;;;;;;5031968;28;20391;-76
2022/07/11 07:52:27;;;;;;;12.80;7.80;;;19.60;57.80;;;;;;5031381;28;20823;-76
2022/07/11 07:54:53;;;;;;;12.23;8.30;;;19.80;54.30;;;;;;5031834;28;20862;-76
2022/07/11 07:57:19;;;;;;;11.00;9.35;;;19.80;52.60;;;;;;5032268;28;20390;-77
2022/07/11 07:59:44;;;;;;;12.05;10.10;;;19.60;54.30;;;;;;5031246;28;20429;-77
2022/07/11 08:02:10;;;;;;;15.53;11.83;;;19.50;56.70;;;;;;5030970;28;20736;-76
2022/07/11 08:04:36;;;;;;;13.82;10.23;;;19.80;55.10;;;;;;5030950;28;20394;-77
2022/07/11 08:07:02;;;;;;;15.82;11.50;;;20.30;50.80;;;;;;5030595;28;20403;-75
2022/07/11 08:09:28;;;;;;;16.17;12.00;;;20.70;50.60;;;;;;5035536;28;20470;-76
2022/07/11 08:11:54;;;;;;;12.03;9.80;;;21.20;47.10;;;;;;5032079;28;20481;-76
2022/07/11 08:14:20;;;;;;;13.07;8.47;;;21.80;40.60;;;;;;5030621;28;20379;-76
2022/07/11 08:16:47;;;;;;;11.07;7.63;;;22.20;35.30;;;;;;5030535;28;20445;-76
2022/07/11 08:19:13;;;;;;;11.15;7.32;;;22.40;33.50;;;;;;5031712;28;20729;-76
2022/07/11 08:21:38;;;;;;;11.55;8.57;;;22.10;34.80;;;;;;5031656;28;20394;-77
2022/07/11 08:24:05;;;;;;;9.35;7.50;;;22.10;36.10;;;;;;5031462;28;20815;-76
2022/07/11 08:26:30;;;;;;;9.98;7.10;;;22.30;33.70;;;;;;5031358;28;20383;-76
2022/07/11 08:28:56;;;;;;;9.40;7.10;;;22.30;34.70;;;;;;5031432;28;20886;-76
2022/07/11 08:31:23;;;;;;;10.40;7.70;;;22.60;33.10;;;;;;5032085;28;20415;-77
2022/07/11 08:33:48;;;;;;;7.72;6.90;;;22.60;32.80;;;;;;5031469;28;20541;-75
2022/07/11 08:36:14;;;;;;;10.38;7.15;;;22.80;31.70;;;;;;5031353;28;20470;-77
2022/07/11 08:38:43;;;;;;;12.07;7.60;;;22.80;31.40;;;;;;5030056;28;20383;-75
2022/07/11 08:41:10;;;;;;;7.53;6.82;;;22.40;32.70;;;;;;5028235;28;20403;-77
2022/07/11 08:43:36;;;;;;;9.70;6.70;;;22.00;33.90;;;;;;5032017;28;20753;-77
2022/07/11 08:46:02;;;;;;;8.43;7.47;;;21.60;36.00;;;;;;5031622;28;20383;-77
2022/07/11 08:48:29;;;;;;;8.05;7.22;;;21.40;37.70;;;;;;5031883;28;20497;-76
2022/07/11 08:50:55;;;;;;;8.93;7.10;;;21.30;37.90;;;;;;5030508;28;20399;-75
2022/07/11 08:53:20;;;;;;;10.15;7.15;;;21.30;38.30;;;;;;5032658;28;20453;-76
2022/07/11 08:55:47;;;;;;;9.10;7.53;;;21.20;38.50;;;;;;5033141;28;20482;-76
2022/07/11 08:58:13;;;;;;;9.80;7.25;;;21.20;38.40;;;;;;5032613;28;20391;-77
2022/07/11 09:00:40;;;;;;;10.30;7.85;;;21.20;39.30;;;;;;5033146;28;20439;-75
2022/07/11 09:03:07;;;;;;;10.10;8.87;;;21.20;38.60;;;;;;5032430;28;20391;-76
2022/07/11 09:05:33;;;;;;;14.60;9.32;;;21.60;36.70;;;;;;5032905;28;20470;-76
2022/07/11 09:07:58;;;;;;;10.32;8.93;;;21.80;36.00;;;;;;5031205;28;20446;-76
2022/07/11 09:10:24;;;;;;;8.40;7.30;;;21.90;35.80;;;;;;5032907;28;20391;-76
2022/07/11 09:13:03;;;;;;;10.45;7.95;;;22.10;33.00;;;;;;5032392;28;20983;-76
2022/07/11 09:15:38;;;;;;;8.13;7.32;;;22.10;34.10;;;;;;5035712;28;20390;-76
2022/07/11 09:18:06;;;;;;;10.20;7.30;;;22.00;33.80;;;;;;5038111;28;20385;-77
2022/07/11 09:26:38;;;;;;;14.50;7.50;;;22.00;34.40;;;;;;5039146;28;20390;-75
2022/07/11 09:29:06;;;;;;;16.40;11.10;;;21.90;34.00;;;;;;5033735;28;20391;-75
2022/07/11 09:31:33;;;;;;;22.23;15.50;;;22.00;34.50;;;;;;5037187;28;20867;-75
2022/07/11 09:34:10;;;;;;;21.88;16.75;;;22.20;31.80;;;;;;5033797;28;20448;-77
2022/07/11 09:36:36;;;;;;;25.15;16.60;;;22.10;32.30;;;;;;5035550;28;20391;-76
2022/07/11 09:39:03;;;;;;;22.48;16.48;;;22.00;32.70;;;;;;5033623;28;20549;-76
2022/07/11 09:41:34;;;;;;;23.50;16.30;;;22.20;31.90;;;;;;5034472;28;20387;-76
2022/07/11 09:44:14;;;;;;;12.32;10.65;;;22.00;32.80;;;;;;5034837;28;20466;-76
2022/07/11 09:46:42;;;;;;;15.80;9.73;;;22.20;32.30;;;;;;5034642;28;20418;-76
2022/07/11 09:49:08;;;;;;;12.10;10.02;;;22.10;32.90;;;;;;5034349;28;20375;-76
2022/07/11 09:51:34;;;;;;;18.58;12.05;;;22.10;33.40;;;;;;5034769;28;20383;-76
2022/07/11 09:54:01;;;;;;;12.85;11.20;;;21.90;33.10;;;;;;5033254;28;20379;-77
2022/07/11 09:56:33;;;;;;;11.80;10.07;;;21.90;33.10;;;;;;5035334;28;20484;-77
2022/07/11 09:59:01;;;;;;;12.98;10.38;;;21.20;36.00;;;;;;5036091;28;20813;-77
2022/07/11 10:01:28;;;;;;;14.00;11.05;;;21.10;37.50;;;;;;5032983;28;20427;-76
2022/07/11 10:03:54;;;;;;;18.45;11.35;;;21.30;37.80;;;;;;5034536;28;20387;-75
2022/07/11 10:06:21;;;;;;;12.88;9.85;;;21.60;35.50;;;;;;5035744;28;20387;-77
2022/07/11 10:08:47;;;;;;;11.82;8.05;;;22.20;32.90;;;;;;5034807;28;20395;-77
2022/07/11 10:11:13;;;;;;;8.95;7.13;;;22.80;29.90;;;;;;5034156;28;20799;-76
2022/07/11 10:13:39;;;;;;;9.52;6.10;;;23.00;28.40;;;;;;5034410;28;20411;-77
2022/07/11 10:16:14;;;;;;;7.40;6.70;;;22.90;27.70;;;;;;5034276;28;20902;-77
2022/07/11 10:19:11;;;;;;;12.57;7.23;;;22.70;29.50;;;;;;5032699;28;20486;-77
2022/07/11 10:21:41;;;;;;;12.40;10.82;;;22.40;30.30;;;;;;5029240;28;20729;-75
2022/07/11 10:24:43;;;;;;;13.30;11.90;;;21.90;31.80;;;;;;5033556;28;20379;-76
2022/07/11 10:27:29;;;;;;;12.07;9.77;;;21.90;32.90;;;;;;5032561;28;20474;-76
2022/07/11 10:29:55;;;;;;;13.07;10.37;;;21.70;33.80;;;;;;5033228;28;20395;-77
2022/07/11 10:32:20;;;;;;;8.10;7.30;;;21.50;34.90;;;;;;5032076;28;20490;-77
2022/07/11 10:35:09;;;;;;;7.70;7.00;;;21.20;35.30;;;;;;5033981;28;20445;-76
2022/07/11 10:37:48;;;;;;;8.13;7.25;;;21.00;37.60;;;;;;5033541;28;20474;-76
2022/07/11 10:40:13;;;;;;;10.43;9.32;;;21.10;36.80;;;;;;5033536;28;20414;-76
2022/07/11 10:42:41;;;;;;;10.88;7.45;;;21.40;36.20;;;;;;5032767;28;20399;-76
2022/07/11 10:45:11;;;;;;;8.20;7.10;;;21.60;34.10;;;;;;5032879;28;20406;-76
2022/07/11 10:47:42;;;;;;;6.77;6.17;;;21.80;33.50;;;;;;5033153;28;20402;-76
2022/07/11 10:50:19;;;;;;;5.63;4.37;;;22.10;32.00;;;;;;5033245;28;20401;-77
2022/07/11 10:52:48;;;;;;;4.90;3.85;;;22.30;31.60;;;;;;5033209;28;20423;-76
2022/07/11 10:55:17;;;;;;;3.45;3.15;;;22.30;30.20;;;;;;5031647;28;20387;-78
2022/07/11 10:57:45;;;;;;;5.60;3.92;;;22.50;29.70;;;;;;5033114;28;20394;-77
2022/07/11 11:00:14;;;;;;;4.90;3.78;;;22.60;29.40;;;;;;5032968;28;20390;-77
2022/07/11 11:03:05;;;;;;;3.80;3.40;;;22.80;28.60;;;;;;5032598;28;20391;-77
2022/07/11 11:05:54;;;;;;;3.90;3.50;;;22.30;29.90;;;;;;5032700;28;20371;-77
2022/07/11 11:08:32;;;;;;;4.60;4.20;;;22.00;31.60;;;;;;5032374;28;20410;-77
2022/07/11 11:10:59;;;;;;;5.30;4.20;;;22.00;31.70;;;;;;5032269;28;20391;-77
2022/07/11 11:13:25;;;;;;;5.35;4.22;;;22.00;31.80;;;;;;5032649;28;20411;-76
2022/07/11 11:15:58;;;;;;;4.60;4.20;;;22.00;32.10;;;;;;5032539;28;20383;-76
2022/07/11 11:18:24;;;;;;;6.65;5.10;;;22.00;32.00;;;;;;5032736;28;20390;-76
2022/07/11 11:21:06;;;;;;;5.40;4.55;;;22.40;31.20;;;;;;5033350;28;20371;-76
2022/07/11 11:23:37;;;;;;;4.50;4.10;;;22.40;30.20;;;;;;5035476;28;20383;-77
2022/07/11 11:26:10;;;;;;;6.00;5.30;;;22.30;30.70;;;;;;5038284;28;20422;-77
2022/07/11 11:28:37;;;;;;;7.50;6.40;;;22.30;30.70;;;;;;5035738;28;20455;-76
2022/07/11 11:31:07;;;;;;;8.38;7.10;;;22.30;30.50;;;;;;5033690;28;20394;-77
2022/07/11 11:33:36;;;;;;;11.60;7.50;;;22.20;30.70;;;;;;5039423;28;20426;-77
2022/07/11 11:36:09;;;;;;;7.37;5.90;;;22.20;31.10;;;;;;5036409;28;20405;-77
2022/07/11 11:38:37;;;;;;;4.65;3.38;;;22.20;31.70;;;;;;5035943;28;20383;-77
2022/07/11 11:41:05;;;;;;;2.72;2.53;;;22.20;30.80;;;;;;5033146;28;20458;-77
2022/07/11 11:43:31;;;;;;;3.45;2.70;;;21.90;32.00;;;;;;5033860;28;20449;-78
2022/07/11 11:45:57;;;;;;;2.17;1.90;;;22.00;32.10;;;;;;5032882;28;20386;-77
2022/07/11 11:48:34;;;;;;;2.20;1.95;;;22.00;31.60;;;;;;5033130;28;20387;-77
2022/07/11 11:51:04;;;;;;;1.67;1.50;;;21.70;34.10;;;;;;5032333;28;20856;-76
2022/07/11 11:53:44;;;;;;;2.22;1.48;;;21.50;34.30;;;;;;5032289;28;20411;-76
2022/07/11 11:56:33;;;;;;;2.95;1.40;;;21.20;35.80;;;;;;5031851;28;20433;-74
2022/07/11 11:59:07;;;;;;;3.00;1.60;;;21.10;37.30;;;;;;5032221;28;20383;-75
2022/07/11 12:01:35;;;;;;;2.10;1.90;;;21.00;37.60;;;;;;5031938;28;20386;-74
2022/07/11 12:04:05;;;;;;;3.17;2.00;;;21.00;37.60;;;;;;5032044;28;20391;-76
2022/07/11 12:06:36;;;;;;;2.40;2.00;;;21.10;38.40;;;;;;5031695;28;20399;-77
2022/07/11 12:09:12;;;;;;;3.53;2.70;;;21.60;36.00;;;;;;5032168;28;20422;-76
2022/07/11 12:11:39;;;;;;;2.50;2.30;;;21.60;35.20;;;;;;5031842;28;20470;-76
2022/07/11 12:14:08;;;;;;;2.25;2.03;;;21.70;34.80;;;;;;5031869;28;20425;-76
2022/07/11 12:16:44;;;;;;;3.15;2.10;;;21.90;34.30;;;;;;5033351;28;20388;-76
2022/07/11 12:19:12;;;;;;;2.58;2.38;;;21.80;34.70;;;;;;5032759;28;20384;-77
2022/07/11 12:21:42;;;;;;;3.60;2.90;;;22.00;34.10;;;;;;5030614;28;20402;-77
2022/07/11 12:24:11;;;;;;;3.95;2.50;;;22.50;32.10;;;;;;5031875;28;20428;-75
2022/07/11 12:26:39;;;;;;;2.40;2.20;;;23.00;29.90;;;;;;5031160;28;20376;-77
2022/07/11 12:29:24;;;;;;;5.05;2.97;;;23.60;27.80;;;;;;5033229;28;20383;-77
2022/07/11 12:31:59;;;;;;;3.93;3.53;;;23.90;25.40;;;;;;5033457;28;20379;-76
2022/07/11 12:34:30;;;;;;;4.65;4.22;;;23.60;26.40;;;;;;5032655;28;20478;-77
2022/07/11 12:37:12;;;;;;;5.28;4.30;;;23.50;26.30;;;;;;5031572;28;20460;-77
2022/07/11 12:39:40;;;;;;;7.25;5.55;;;23.40;27.80;;;;;;5031235;28;20851;-76
2022/07/11 12:42:32;;;;;;;4.90;4.40;;;23.20;27.90;;;;;;5031288;28;20760;-76
2022/07/11 12:45:08;;;;;;;5.30;4.80;;;23.30;27.40;;;;;;5033778;28;20819;-75
2022/07/11 12:47:35;;;;;;;5.90;4.70;;;23.00;28.20;;;;;;5031541;28;21108;-76
2022/07/11 12:50:10;;;;;;;6.72;6.00;;;22.80;29.10;;;;;;5031477;28;20383;-76
2022/07/11 12:52:37;;;;;;;6.83;5.83;;;22.70;30.30;;;;;;5031266;28;20501;-76